createdAt,value
2022-09-20T00:00:12.439Z,3.60
2022-09-20T00:02:39.199Z,4.20
2022-09-20T00:05:06.580Z,3.55
2022-09-20T00:07:33.217Z,3.53
2022-09-20T00:09:59.845Z,3.90
2022-09-20T00:12:27.845Z,4.15
2022-09-20T00:14:54.400Z,3.60
2022-09-20T00:17:21.074Z,3.47
2022-09-20T00:19:47.714Z,3.65
2022-09-20T00:22:14.287Z,3.45
2022-09-20T00:24:42.131Z,3.10
2022-09-20T00:27:11.152Z,3.70
2022-09-20T00:29:39.144Z,3.10
2022-09-20T00:32:05.814Z,3.33
2022-09-20T00:34:32.437Z,3.25
2022-09-20T00:36:59.015Z,3.10
2022-09-20T00:39:25.823Z,3.30
2022-09-20T00:41:52.406Z,3.40
2022-09-20T00:44:44.953Z,3.40
2022-09-20T00:47:22.108Z,3.67
2022-09-20T00:49:51.275Z,3.25
2022-09-20T00:52:19.768Z,3.92
2022-09-20T00:54:47.196Z,3.60
2022-09-20T00:57:13.962Z,3.53
2022-09-20T00:59:46.833Z,3.50
2022-09-20T01:02:18.922Z,3.55
2022-09-20T01:04:47.844Z,3.70
2022-09-20T01:07:17.956Z,3.50
2022-09-20T01:09:44.629Z,3.50
2022-09-20T01:12:16.141Z,3.33
2022-09-20T01:14:46.470Z,3.53
2022-09-20T01:17:14.117Z,3.20
2022-09-20T01:19:53.308Z,3.45
2022-09-20T01:22:25.772Z,3.30
2022-09-20T01:24:59.284Z,3.92
2022-09-20T01:27:39.014Z,3.55
2022-09-20T01:30:08.256Z,3.78
2022-09-20T01:32:47.555Z,3.97
2022-09-20T01:35:16.797Z,3.50
2022-09-20T01:37:59.375Z,3.28
2022-09-20T01:40:33.302Z,3.20
2022-09-20T01:43:11.068Z,2.80
2022-09-20T01:45:45.009Z,3.30
2022-09-20T01:48:18.975Z,2.92
2022-09-20T01:51:29.868Z,2.60
2022-09-20T01:54:29.507Z,3.05
2022-09-20T01:57:28.776Z,2.80
2022-09-20T02:00:15.919Z,3.10
2022-09-20T02:03:19.390Z,2.50
2022-09-20T02:06:20.223Z,2.88
2022-09-20T02:09:12.050Z,3.10
2022-09-20T02:11:52.967Z,3.10
2022-09-20T02:14:34.763Z,3.00
2022-09-20T02:17:12.608Z,2.40
2022-09-20T02:19:54.749Z,2.85
2022-09-20T02:22:31.366Z,2.80
2022-09-20T02:25:06.865Z,3.25
2022-09-20T02:27:41.950Z,2.67
2022-09-20T02:30:23.726Z,2.92
2022-09-20T02:33:12.080Z,3.08
2022-09-20T02:35:50.971Z,3.08
2022-09-20T02:38:30.690Z,3.10
2022-09-20T02:41:14.590Z,3.00
2022-09-20T02:43:52.201Z,2.70
2022-09-20T02:46:26.078Z,2.63
2022-09-20T02:49:14.505Z,2.47
2022-09-20T02:51:44.783Z,2.55
2022-09-20T02:54:21.807Z,2.67
2022-09-20T02:56:55.861Z,2.08
2022-09-20T02:59:29.740Z,2.45
2022-09-20T03:02:07.080Z,2.63
2022-09-20T03:04:53.971Z,2.20
2022-09-20T03:07:30.388Z,2.40
2022-09-20T03:10:12.419Z,2.38
2022-09-20T03:12:50.788Z,2.28
2022-09-20T03:15:28.938Z,2.10
2022-09-20T03:18:06.837Z,2.20
2022-09-20T03:20:46.400Z,1.90
2022-09-20T03:25:55.282Z,1.60
2022-09-20T03:28:36.930Z,1.83
2022-09-20T03:31:12.371Z,1.90
2022-09-20T03:33:48.927Z,1.80
2022-09-20T03:36:34.876Z,1.60
2022-09-20T03:39:29.659Z,1.50
2022-09-20T03:42:14.996Z,1.58
2022-09-20T03:45:19.913Z,1.67
2022-09-20T03:48:13.045Z,1.67
2022-09-20T03:51:04.828Z,2.08
2022-09-20T03:54:16.228Z,1.92
2022-09-20T03:57:15.952Z,1.80
2022-09-20T04:00:06.502Z,2.15
2022-09-20T04:03:09.040Z,2.10
2022-09-20T04:05:47.075Z,2.28
2022-09-20T04:08:38.074Z,2.55
2022-09-20T04:11:27.135Z,2.05
2022-09-20T04:14:11.844Z,2.00
2022-09-20T04:16:49.265Z,1.90
2022-09-20T04:19:44.404Z,2.45
2022-09-20T04:22:26.747Z,2.00
2022-09-20T04:25:03.748Z,1.85
2022-09-20T04:27:45.414Z,1.60
2022-09-20T04:30:27.326Z,2.05
2022-09-20T04:33:14.671Z,2.90
2022-09-20T04:35:57.302Z,1.88
2022-09-20T04:38:25.820Z,1.80
2022-09-20T04:41:18.586Z,2.85
2022-09-20T04:44:17.196Z,2.38
2022-09-20T04:47:16.870Z,2.70
2022-09-20T04:50:13.853Z,1.98
2022-09-20T04:53:10.447Z,2.30
2022-09-20T04:55:56.196Z,2.83
2022-09-20T04:58:46.269Z,2.05
2022-09-20T05:01:49.221Z,1.92
2022-09-20T05:05:05.840Z,2.05
2022-09-20T05:08:16.737Z,3.08
2022-09-20T05:14:32.391Z,2.17
2022-09-20T05:17:29.037Z,1.95
2022-09-20T05:20:31.047Z,2.50
2022-09-20T05:23:25.991Z,3.87
2022-09-20T05:26:24.311Z,2.33
2022-09-20T05:29:11.756Z,2.25
2022-09-20T05:32:04.523Z,2.00
2022-09-20T05:38:05.113Z,2.28
2022-09-20T05:41:06.466Z,3.00
2022-09-20T05:44:10.956Z,1.92
2022-09-20T05:50:04.785Z,2.15
2022-09-20T05:52:57.110Z,1.92
2022-09-20T05:56:14.133Z,1.90
2022-09-20T06:06:01.850Z,1.90
2022-09-20T06:09:02.204Z,2.70
2022-09-20T06:11:59.345Z,2.00
2022-09-20T06:15:11.864Z,1.70
2022-09-20T06:18:21.686Z,2.67
2022-09-20T06:21:30.227Z,2.67
2022-09-20T06:24:47.045Z,2.50
2022-09-20T06:30:34.245Z,2.28
2022-09-20T06:33:17.340Z,2.10
2022-09-20T06:35:50.800Z,2.42
2022-09-20T06:38:45.559Z,2.00
2022-09-20T06:41:12.861Z,2.45
2022-09-20T06:43:39.472Z,2.67
2022-09-20T06:46:06.172Z,2.72
2022-09-20T06:48:34.416Z,2.88
2022-09-20T06:51:01.820Z,2.83
2022-09-20T06:53:30.790Z,2.53
2022-09-20T06:55:58.029Z,2.65
2022-09-20T06:58:25.167Z,2.35
2022-09-20T07:00:55.769Z,2.50
2022-09-20T07:03:26.965Z,2.67
2022-09-20T07:51:53.739Z,2.17
2022-09-20T08:26:12.285Z,2.08
2022-09-20T08:29:50.158Z,1.88
2022-09-20T08:56:55.878Z,1.70
2022-09-20T08:59:23.406Z,1.80
2022-09-20T09:01:51.068Z,1.73
2022-09-20T09:04:22.237Z,1.50
2022-09-20T09:07:00.631Z,1.50
2022-09-20T09:09:28.801Z,1.75
2022-09-20T09:11:57.829Z,1.30
2022-09-20T09:14:30.515Z,1.42
2022-09-20T09:17:19.381Z,1.50
2022-09-20T09:19:58.664Z,1.80
2022-09-20T09:22:29.608Z,1.60
2022-09-20T09:25:36.808Z,1.40
2022-09-20T09:28:13.892Z,1.92
2022-09-20T09:30:45.830Z,1.50
2022-09-20T09:33:37.441Z,1.45
2022-09-20T09:36:08.894Z,1.30
2022-09-20T09:38:37.945Z,1.40
2022-09-20T09:41:06.828Z,1.50
2022-09-20T09:44:05.279Z,1.27
2022-09-20T09:46:43.294Z,1.43
2022-09-20T09:49:18.041Z,1.40
2022-09-20T09:52:04.489Z,1.00
2022-09-20T09:54:34.127Z,1.35
2022-09-20T09:57:16.273Z,1.25
2022-09-20T10:00:00.947Z,1.50
2022-09-20T10:03:00.176Z,1.50
2022-09-20T10:05:35.672Z,1.15
2022-09-20T10:08:14.943Z,1.20
2022-09-20T10:10:54.250Z,0.93
2022-09-20T10:13:29.911Z,0.98
2022-09-20T10:16:05.522Z,0.90
2022-09-20T10:18:47.748Z,0.90
2022-09-20T10:21:35.902Z,1.05
2022-09-20T10:24:14.215Z,0.88
2022-09-20T10:27:05.799Z,1.10
2022-09-20T10:29:44.546Z,1.38
2022-09-20T10:32:27.844Z,1.42
2022-09-20T10:35:13.838Z,1.10
2022-09-20T10:37:53.885Z,1.23
2022-09-20T10:40:28.853Z,1.30
2022-09-20T10:43:07.868Z,1.30
2022-09-20T10:46:08.714Z,1.10
2022-09-20T10:48:38.413Z,0.98
2022-09-20T10:51:16.436Z,1.10
2022-09-20T10:53:51.193Z,1.20
2022-09-20T10:56:27.807Z,1.00
2022-09-20T10:59:25.076Z,1.02
2022-09-20T11:02:09.788Z,1.10
2022-09-20T11:04:56.644Z,1.00
2022-09-20T11:07:33.042Z,0.98
2022-09-20T11:10:05.793Z,1.00
2022-09-20T11:12:37.282Z,0.60
2022-09-20T11:15:12.254Z,0.90
2022-09-20T11:17:42.729Z,0.73
2022-09-20T11:20:19.306Z,0.90
2022-09-20T11:22:49.627Z,1.27
2022-09-20T11:25:21.534Z,1.00
2022-09-20T11:27:53.332Z,1.08
2022-09-20T11:30:21.971Z,1.00
2022-09-20T11:32:54.238Z,0.60
2022-09-20T11:35:28.964Z,0.50
2022-09-20T11:38:06.263Z,0.57
2022-09-20T11:40:37.259Z,0.50
2022-09-20T11:43:08.727Z,0.52
2022-09-20T11:45:38.926Z,0.50
2022-09-20T11:48:10.147Z,0.60
2022-09-20T11:51:02.133Z,0.38
2022-09-20T11:53:47.084Z,0.77
2022-09-20T11:56:22.151Z,0.63
2022-09-20T11:58:51.010Z,0.70
2022-09-20T12:01:28.419Z,0.70
2022-09-20T12:04:20.660Z,0.57
2022-09-20T12:06:47.775Z,0.68
2022-09-20T12:09:25.212Z,0.60
2022-09-20T12:11:52.786Z,0.82
2022-09-20T12:14:22.594Z,0.60
2022-09-20T12:16:50.962Z,0.70
2022-09-20T12:19:38.485Z,0.70
2022-09-20T12:22:28.208Z,1.05
2022-09-20T12:25:36.481Z,0.60
2022-09-20T12:28:03.513Z,0.47
2022-09-20T12:30:30.273Z,0.60
2022-09-20T12:32:59.402Z,0.70
2022-09-20T12:36:25.696Z,0.57
2022-09-20T12:39:04.597Z,0.85
2022-09-20T12:41:46.170Z,0.90
2022-09-20T12:44:25.872Z,1.20
2022-09-20T12:46:55.881Z,0.90
2022-09-20T12:49:47.175Z,0.65
2022-09-20T12:52:30.802Z,0.90
2022-09-20T12:55:04.636Z,0.80
2022-09-20T12:57:34.337Z,0.75
2022-09-20T13:00:03.978Z,0.77
2022-09-20T13:02:57.291Z,0.68
2022-09-20T13:05:32.447Z,0.52
2022-09-20T13:08:17.612Z,0.88
2022-09-20T13:10:48.407Z,0.88
2022-09-20T13:13:39.526Z,0.60
2022-09-20T13:16:07.199Z,0.65
2022-09-20T13:18:36.260Z,0.60
2022-09-20T13:21:07.794Z,0.60
2022-09-20T13:23:45.354Z,0.60
2022-09-20T13:26:15.815Z,0.60
2022-09-20T13:28:49.394Z,0.50
2022-09-20T13:31:26.638Z,1.13
2022-09-20T13:33:53.458Z,1.48
2022-09-20T13:36:28.696Z,1.50
2022-09-20T13:38:57.474Z,1.38
2022-09-20T13:41:28.663Z,1.90
2022-09-20T13:43:55.474Z,1.20
2022-09-20T13:46:24.431Z,1.20
2022-09-20T13:48:57.856Z,1.40
2022-09-20T13:51:26.757Z,1.27
2022-09-20T13:53:53.889Z,1.07
2022-09-20T13:56:22.990Z,1.00
2022-09-20T13:58:51.814Z,1.20
2022-09-20T14:01:26.780Z,1.15
2022-09-20T14:03:53.826Z,1.30
2022-09-20T14:06:25.481Z,0.93
2022-09-20T14:08:52.425Z,1.02
2022-09-20T14:11:21.468Z,0.90
2022-09-20T14:13:51.708Z,1.20
2022-09-20T14:16:22.066Z,0.90
2022-09-20T14:18:49.817Z,1.05
2022-09-20T14:21:21.828Z,0.80
2022-09-20T14:23:53.674Z,1.00
2022-09-20T14:26:26.233Z,0.95
2022-09-20T14:28:53.370Z,1.00
2022-09-20T14:31:25.401Z,0.90
2022-09-20T14:33:55.405Z,0.80
2022-09-20T14:36:24.310Z,1.00
2022-09-20T14:38:53.732Z,1.00
2022-09-20T14:41:28.055Z,0.80
2022-09-20T14:43:56.879Z,0.95
2022-09-20T14:46:31.779Z,0.93
2022-09-20T14:49:19.827Z,1.13
2022-09-20T14:51:46.456Z,0.77
2022-09-20T14:54:25.102Z,0.90
2022-09-20T14:56:51.781Z,1.00
2022-09-20T14:59:24.864Z,0.73
2022-09-20T15:02:01.056Z,1.05
2022-09-20T15:04:28.243Z,0.68
2022-09-20T15:06:56.330Z,0.70
2022-09-20T15:09:23.025Z,0.68
2022-09-20T15:12:00.503Z,0.80
2022-09-20T15:14:27.311Z,0.90
2022-09-20T15:16:54.219Z,1.08
2022-09-20T15:19:22.330Z,0.80
2022-09-20T15:21:49.008Z,0.70
2022-09-20T15:24:15.607Z,0.80
2022-09-20T15:26:42.263Z,0.90
2022-09-20T15:29:13.895Z,0.80
2022-09-20T15:31:40.613Z,0.70
2022-09-20T15:34:07.490Z,1.00
2022-09-20T15:36:35.785Z,1.00
2022-09-20T15:39:02.422Z,0.90
2022-09-20T15:41:31.247Z,0.77
2022-09-20T15:43:58.256Z,0.80
2022-09-20T15:46:25.792Z,0.90
2022-09-20T15:48:52.730Z,0.90
2022-09-20T15:51:19.778Z,1.00
2022-09-20T15:53:54.218Z,0.98
2022-09-20T15:56:22.724Z,1.20
2022-09-20T15:58:50.985Z,2.40
2022-09-20T16:01:18.917Z,1.40
2022-09-20T16:03:46.623Z,1.48
2022-09-20T16:06:13.509Z,1.00
2022-09-20T16:08:43.186Z,1.40
2022-09-20T16:11:16.494Z,1.42
2022-09-20T16:13:46.168Z,1.80
2022-09-20T16:16:13.111Z,1.48
2022-09-20T16:18:39.797Z,1.67
2022-09-20T16:21:07.827Z,1.73
2022-09-20T16:23:34.548Z,1.35
2022-09-20T16:26:01.263Z,1.30
2022-09-20T16:28:29.280Z,1.63
2022-09-20T16:30:56.666Z,1.67
2022-09-20T16:33:23.294Z,1.17
2022-09-20T16:35:49.994Z,1.60
2022-09-20T16:38:16.654Z,1.40
2022-09-20T16:40:43.292Z,1.52
2022-09-20T16:43:09.989Z,1.23
2022-09-20T16:45:38.030Z,1.10
2022-09-20T16:48:08.489Z,1.45
2022-09-20T16:50:35.316Z,1.20
2022-09-20T16:53:01.956Z,1.30
2022-09-20T16:55:28.780Z,1.40
2022-09-20T16:57:55.407Z,1.20
2022-09-20T17:00:22.145Z,1.23
2022-09-20T17:02:50.865Z,1.00
2022-09-20T17:05:17.664Z,1.17
2022-09-20T17:07:44.255Z,1.10
2022-09-20T17:10:10.998Z,1.25
2022-09-20T17:12:37.551Z,1.23
2022-09-20T17:15:04.786Z,1.23
2022-09-20T17:17:31.430Z,1.30
2022-09-20T17:19:59.805Z,1.20
2022-09-20T17:22:26.400Z,1.40
2022-09-20T17:24:53.029Z,1.13
2022-09-20T17:27:19.662Z,1.20
2022-09-20T17:29:46.311Z,1.20
2022-09-20T17:32:14.266Z,1.35
2022-09-20T17:34:41.070Z,1.08
2022-09-20T17:37:09.049Z,1.02
2022-09-20T17:39:35.778Z,1.60
2022-09-20T17:42:02.377Z,1.70
2022-09-20T17:44:29.061Z,1.40
2022-09-20T17:46:55.912Z,1.63
2022-09-20T17:49:23.510Z,1.42
2022-09-20T17:51:51.901Z,1.50
2022-09-20T17:54:21.015Z,1.77
2022-09-20T17:56:49.374Z,1.50
2022-09-20T17:59:17.563Z,1.45
2022-09-20T18:01:45.711Z,1.50
2022-09-20T18:04:12.908Z,1.23
2022-09-20T18:06:41.128Z,1.23
2022-09-20T18:09:11.221Z,1.48
2022-09-20T18:11:41.434Z,1.27
2022-09-20T18:14:09.862Z,1.20
2022-09-20T18:16:37.370Z,1.27
2022-09-20T18:19:04.772Z,1.10
2022-09-20T18:21:32.322Z,1.27
2022-09-20T18:23:59.049Z,1.40
2022-09-20T18:26:27.789Z,1.55
2022-09-20T18:29:00.152Z,1.30
2022-09-20T18:31:28.588Z,1.20
2022-09-20T18:33:57.446Z,1.40
2022-09-20T18:36:24.569Z,1.17
2022-09-20T18:38:51.784Z,1.20
2022-09-20T18:41:18.364Z,1.30
2022-09-20T18:43:46.627Z,1.50
2022-09-20T18:46:14.765Z,1.55
2022-09-20T18:48:41.401Z,1.10
2022-09-20T18:51:08.780Z,1.20
2022-09-20T18:53:36.995Z,1.20
2022-09-20T18:56:08.373Z,1.35
2022-09-20T18:58:36.596Z,1.23
2022-09-20T19:01:23.527Z,1.20
2022-09-20T19:04:00.834Z,1.20
2022-09-20T19:06:33.953Z,1.30
2022-09-20T19:09:04.781Z,1.30
2022-09-20T19:11:37.840Z,1.30
2022-09-20T19:14:11.282Z,1.20
2022-09-20T19:16:39.680Z,1.30
2022-09-20T19:19:33.205Z,1.08
2022-09-20T19:22:08.441Z,1.50
2022-09-20T19:24:51.729Z,1.40
2022-09-20T19:27:18.777Z,1.60
2022-09-20T19:29:46.234Z,1.55
2022-09-20T19:32:17.491Z,1.70
2022-09-20T19:34:44.971Z,1.38
2022-09-20T19:37:23.920Z,1.55
2022-09-20T19:40:07.179Z,1.50
2022-09-20T19:42:40.516Z,1.70
2022-09-20T19:45:19.400Z,1.80
2022-09-20T19:47:54.273Z,2.00
2022-09-20T19:50:27.326Z,1.80
2022-09-20T19:52:55.088Z,1.83
2022-09-20T19:55:22.562Z,2.10
2022-09-20T19:57:49.825Z,1.90
2022-09-20T20:00:19.100Z,2.28
2022-09-20T20:02:48.398Z,1.70
2022-09-20T20:05:17.779Z,2.05
2022-09-20T20:07:52.401Z,1.88
2022-09-20T20:10:26.818Z,1.98
2022-09-20T20:12:59.834Z,1.92
2022-09-20T20:15:38.714Z,1.80
2022-09-20T20:18:17.410Z,1.70
2022-09-20T20:20:47.626Z,2.00
2022-09-20T20:23:40.715Z,2.00
2022-09-20T20:26:09.213Z,2.10
2022-09-20T20:28:36.851Z,1.63
2022-09-20T20:31:04.644Z,1.92
2022-09-20T20:33:32.764Z,1.80
2022-09-20T20:36:01.245Z,1.70
2022-09-20T20:38:28.280Z,1.92
2022-09-20T20:40:58.923Z,1.90
2022-09-20T20:43:25.512Z,2.10
2022-09-20T20:45:52.149Z,2.20
2022-09-20T20:48:18.832Z,1.88
2022-09-20T20:50:46.787Z,1.80
2022-09-20T20:53:13.393Z,1.85
2022-09-20T20:55:39.990Z,2.13
2022-09-20T20:58:06.794Z,2.45
2022-09-20T21:00:33.391Z,2.30
2022-09-20T21:03:01.479Z,2.50
2022-09-20T21:05:28.746Z,2.40
2022-09-20T21:07:56.753Z,2.55
2022-09-20T21:10:23.718Z,2.58
2022-09-20T21:12:53.256Z,2.05
2022-09-20T21:17:50.598Z,2.78
2022-09-20T21:20:17.218Z,2.85
2022-09-20T21:22:43.846Z,2.65
2022-09-20T21:25:11.835Z,2.80
2022-09-20T21:27:38.409Z,3.28
2022-09-20T21:30:06.015Z,3.47
2022-09-20T21:32:32.675Z,3.70
2022-09-20T21:34:59.262Z,3.53
2022-09-20T21:37:25.943Z,3.83
2022-09-20T21:39:52.545Z,4.00
2022-09-20T21:42:20.511Z,3.92
2022-09-20T21:44:47.158Z,3.88
2022-09-20T21:47:13.790Z,3.60
2022-09-20T21:49:40.392Z,3.60
2022-09-20T21:52:06.999Z,3.53
2022-09-20T21:54:33.650Z,4.18
2022-09-20T21:57:00.250Z,3.80
2022-09-20T21:59:28.178Z,3.20
2022-09-20T22:01:54.895Z,3.00
2022-09-20T22:04:21.519Z,3.03
2022-09-20T22:06:48.118Z,3.40
2022-09-20T22:09:16.729Z,3.58
2022-09-20T22:11:44.908Z,3.70
2022-09-20T22:14:13.085Z,3.35
2022-09-20T22:16:42.794Z,3.78
2022-09-20T22:19:11.612Z,3.13
2022-09-20T22:21:41.284Z,3.30
2022-09-20T22:24:10.055Z,3.00
2022-09-20T22:26:38.326Z,2.90
2022-09-20T22:29:05.090Z,3.15
2022-09-20T22:31:33.139Z,3.20
2022-09-20T22:34:03.076Z,2.97
2022-09-20T22:36:31.809Z,2.90
2022-09-20T22:38:58.737Z,2.90
2022-09-20T22:41:25.704Z,2.90
2022-09-20T22:43:52.275Z,3.13
2022-09-20T22:46:20.931Z,2.90
2022-09-20T22:48:48.519Z,3.17
2022-09-20T22:51:17.757Z,2.67
2022-09-20T22:53:45.063Z,2.85
2022-09-20T22:56:13.787Z,2.58
2022-09-20T22:58:42.012Z,2.80
2022-09-20T23:01:10.976Z,2.80
2022-09-20T23:03:38.641Z,2.63
2022-09-20T23:06:11.669Z,2.38
2022-09-20T23:08:39.907Z,2.42
2022-09-20T23:11:07.128Z,2.67
2022-09-20T23:13:33.942Z,2.63
2022-09-20T23:16:00.812Z,2.70
2022-09-20T23:18:27.435Z,2.22
2022-09-20T23:21:01.442Z,2.47
2022-09-20T23:23:28.309Z,2.25
2022-09-20T23:26:02.567Z,2.50
2022-09-20T23:28:29.116Z,2.10
2022-09-20T23:31:02.759Z,2.10
2022-09-20T23:33:31.004Z,1.88
2022-09-20T23:35:57.743Z,1.83
2022-09-20T23:38:24.382Z,1.38
2022-09-20T23:40:51.126Z,1.70
2022-09-20T23:43:19.060Z,1.40
2022-09-20T23:45:45.784Z,1.55
2022-09-20T23:48:12.498Z,1.58
2022-09-20T23:50:39.126Z,1.77
2022-09-20T23:53:05.747Z,1.70
2022-09-20T23:55:32.344Z,1.58
2022-09-20T23:57:58.914Z,1.80
